Time;durP1;ratioP1;P1;durP2;ratioP2;P2;SDS_P1;SDS_P2;PMS_P1;PMS_P2;Temp;Humidity;BMP_temperature;BMP_pressure;BME280_temperature;BME280_humidity;BME280_pressure;Samples;Min_cycle;Max_cycle;Signal;HPM_P1;HPM_P2
2022/05/30 00:02:07;;;;;;;1.42;0.40;;;;;;;;;;5089179;28;20051;-61
2022/05/30 00:04:35;;;;;;;4.28;1.33;;;;;;;;;;5090701;28;20060;-61
2022/05/30 00:07:01;;;;;;;3.13;0.55;;;;;;;;;;5077564;28;20036;-61
2022/05/30 00:09:27;;;;;;;2.63;0.50;;;;;;;;;;5089382;28;20504;-61
2022/05/30 00:11:53;;;;;;;2.80;0.80;;;;;;;;;;5068819;28;20043;-60
2022/05/30 00:14:20;;;;;;;3.22;1.83;;;;;;;;;;5075717;28;20052;-61
2022/05/30 00:16:46;;;;;;;3.90;1.52;;;;;;;;;;5094972;28;20052;-61
2022/05/30 00:19:12;;;;;;;4.75;1.48;;;;;;;;;;5092593;28;20056;-61
2022/05/30 00:21:38;;;;;;;2.10;0.90;;;;;;;;;;5083369;28;20055;-60
2022/05/30 00:24:04;;;;;;;5.13;1.05;;;;;;;;;;5085351;28;20048;-61
2022/05/30 00:26:30;;;;;;;3.47;1.30;;;;;;;;;;5094914;28;20048;-60
2022/05/30 00:28:56;;;;;;;5.18;1.25;;;;;;;;;;5094048;28;20112;-61
2022/05/30 00:31:22;;;;;;;3.35;1.33;;;;;;;;;;5092986;28;20044;-61
2022/05/30 00:33:49;;;;;;;3.45;1.20;;;;;;;;;;5076953;28;20079;-61
2022/05/30 00:36:15;;;;;;;6.53;1.52;;;;;;;;;;5093911;28;20036;-61
2022/05/30 00:38:41;;;;;;;4.00;1.33;;;;;;;;;;5090278;28;20059;-61
2022/05/30 00:41:07;;;;;;;4.50;1.60;;;;;;;;;;5093231;28;20056;-61
2022/05/30 00:43:35;;;;;;;7.18;1.50;;;;;;;;;;5075818;28;20538;-61
2022/05/30 00:46:02;;;;;;;5.18;1.80;;;;;;;;;;5056227;28;20052;-61
2022/05/30 00:48:32;;;;;;;5.85;2.00;;;;;;;;;;5092892;28;20098;-60
2022/05/30 00:51:00;;;;;;;5.68;1.20;;;;;;;;;;5089095;28;20115;-61
2022/05/30 00:53:27;;;;;;;5.82;1.83;;;;;;;;;;5086357;28;20078;-61
2022/05/30 00:55:53;;;;;;;8.63;1.80;;;;;;;;;;5075430;28;20041;-60
2022/05/30 00:58:20;;;;;;;7.93;1.50;;;;;;;;;;5086789;28;20112;-60
2022/05/30 01:00:46;;;;;;;7.15;1.30;;;;;;;;;;5078263;28;20059;-60
2022/05/30 01:08:43;;;;;;;9.52;3.08;;;;;;;;;;5092936;28;20052;-60
2022/05/30 01:11:09;;;;;;;12.60;6.47;;;;;;;;;;5093151;28;20377;-60
2022/05/30 01:13:37;;;;;;;10.77;3.60;;;;;;;;;;5082672;28;20047;-60
2022/05/30 01:16:04;;;;;;;7.13;2.95;;;;;;;;;;5066574;28;20127;-61
2022/05/30 01:18:41;;;;;;;7.95;2.40;;;;;;;;;;5073687;28;20056;-61
2022/05/30 01:21:26;;;;;;;9.65;2.20;;;;;;;;;;5086534;28;20044;-61
2022/05/30 01:23:58;;;;;;;3.05;1.70;;;;;;;;;;5074340;28;20055;-61
2022/05/30 01:26:24;;;;;;;6.78;2.08;;;;;;;;;;5092516;28;20040;-61
2022/05/30 01:28:57;;;;;;;4.43;1.65;;;;;;;;;;5092866;28;20124;-61
2022/05/30 01:31:23;;;;;;;9.90;2.92;;;;;;;;;;5088269;28;20055;-61
2022/05/30 01:33:49;;;;;;;6.50;1.75;;;;;;;;;;5091078;28;20048;-61
2022/05/30 01:36:15;;;;;;;8.52;1.75;;;;;;;;;;5091706;28;20066;-61
2022/05/30 01:38:41;;;;;;;8.43;2.30;;;;;;;;;;5093454;28;20047;-61
2022/05/30 01:41:07;;;;;;;4.97;1.40;;;;;;;;;;5091411;28;20050;-61
2022/05/30 01:43:34;;;;;;;5.57;1.63;;;;;;;;;;5092835;28;20044;-61
2022/05/30 01:46:07;;;;;;;3.50;1.40;;;;;;;;;;5092616;28;20063;-62
2022/05/30 01:48:33;;;;;;;4.50;1.55;;;;;;;;;;5073853;28;20036;-61
2022/05/30 01:51:00;;;;;;;5.43;2.80;;;;;;;;;;5073453;28;20040;-62
2022/05/30 01:53:26;;;;;;;5.93;1.80;;;;;;;;;;5086784;28;20123;-63
2022/05/30 01:55:52;;;;;;;4.68;1.52;;;;;;;;;;5075331;28;20098;-61
2022/05/30 01:58:18;;;;;;;6.13;2.20;;;;;;;;;;5061997;28;20048;-61
2022/05/30 02:00:44;;;;;;;6.25;1.85;;;;;;;;;;5092089;28;20730;-61
2022/05/30 02:03:10;;;;;;;7.55;2.97;;;;;;;;;;5090909;28;20110;-61
2022/05/30 02:05:36;;;;;;;7.65;2.30;;;;;;;;;;5073742;28;20112;-61
2022/05/30 02:08:03;;;;;;;5.30;2.65;;;;;;;;;;5091294;28;20510;-61
2022/05/30 02:10:31;;;;;;;5.53;2.55;;;;;;;;;;5087510;28;20040;-61
2022/05/30 02:12:57;;;;;;;5.47;2.50;;;;;;;;;;5092779;28;20059;-61
2022/05/30 02:15:23;;;;;;;6.78;2.53;;;;;;;;;;5091709;28;20086;-61
2022/05/30 02:17:49;;;;;;;5.00;2.42;;;;;;;;;;5090112;28;20040;-61
2022/05/30 02:20:16;;;;;;;6.50;2.85;;;;;;;;;;5067850;28;20048;-61
2022/05/30 02:22:42;;;;;;;6.72;3.00;;;;;;;;;;5091613;28;20082;-61
2022/05/30 02:25:08;;;;;;;5.45;2.42;;;;;;;;;;5057898;28;20056;-61
2022/05/30 02:27:34;;;;;;;5.18;3.40;;;;;;;;;;5091164;28;20044;-61
2022/05/30 02:30:00;;;;;;;12.10;3.85;;;;;;;;;;5091613;28;20043;-61
2022/05/30 02:32:26;;;;;;;5.35;3.22;;;;;;;;;;5071923;28;20405;-61
2022/05/30 02:37:51;;;;;;;5.47;2.75;;;;;;;;;;5000243;28;20046;-61
2022/05/30 02:40:17;;;;;;;6.75;3.70;;;;;;;;;;4996774;28;20173;-61
2022/05/30 02:42:44;;;;;;;5.47;2.60;;;;;;;;;;5008463;28;20128;-61
2022/05/30 02:45:10;;;;;;;7.68;4.35;;;;;;;;;;5010197;28;20054;-61
2022/05/30 02:47:36;;;;;;;11.15;4.13;;;;;;;;;;5009476;28;20049;-61
2022/05/30 02:50:02;;;;;;;7.78;2.65;;;;;;;;;;4987973;28;20049;-62
2022/05/30 02:52:30;;;;;;;5.88;2.95;;;;;;;;;;5008619;28;20140;-62
2022/05/30 02:54:56;;;;;;;6.07;2.65;;;;;;;;;;4998239;28;20053;-61
2022/05/30 02:57:22;;;;;;;4.78;2.00;;;;;;;;;;5009149;28;20045;-62
2022/05/30 02:59:48;;;;;;;4.95;2.80;;;;;;;;;;5008027;28;20119;-62
2022/05/30 03:02:14;;;;;;;7.35;3.17;;;;;;;;;;4997769;28;20184;-62
2022/05/30 03:04:40;;;;;;;5.20;3.15;;;;;;;;;;4993514;28;20556;-62
2022/05/30 03:07:06;;;;;;;8.57;2.85;;;;;;;;;;5002228;28;20053;-62
2022/05/30 03:09:32;;;;;;;7.03;3.33;;;;;;;;;;5000639;28;20042;-62
2022/05/30 03:11:58;;;;;;;9.27;3.88;;;;;;;;;;5007305;28;20081;-62
2022/05/30 03:14:24;;;;;;;7.95;4.13;;;;;;;;;;5065473;28;20197;-63
2022/05/30 03:16:50;;;;;;;7.75;3.22;;;;;;;;;;5092185;28;20048;-62
2022/05/30 03:19:16;;;;;;;5.88;2.90;;;;;;;;;;5075841;28;20773;-63
2022/05/30 03:21:42;;;;;;;8.80;4.18;;;;;;;;;;5089681;28;20130;-62
2022/05/30 03:24:08;;;;;;;5.95;3.70;;;;;;;;;;5072985;28;20174;-62
2022/05/30 03:26:34;;;;;;;12.45;4.43;;;;;;;;;;5069762;28;20054;-62
2022/05/30 03:29:00;;;;;;;11.60;5.85;;;;;;;;;;5054080;28;20048;-62
2022/05/30 03:31:26;;;;;;;9.70;5.38;;;;;;;;;;5070981;28;20485;-63
2022/05/30 03:33:53;;;;;;;10.10;6.07;;;;;;;;;;5071754;28;20040;-63
2022/05/30 03:36:25;;;;;;;6.40;4.63;;;;;;;;;;5069711;28;20063;-62
2022/05/30 03:38:51;;;;;;;9.88;4.97;;;;;;;;;;5068197;28;20056;-62
2022/05/30 03:41:17;;;;;;;8.57;4.05;;;;;;;;;;5070637;28;20051;-62
2022/05/30 03:43:43;;;;;;;13.10;6.18;;;;;;;;;;5068284;28;20041;-62
2022/05/30 03:46:08;;;;;;;9.25;5.30;;;;;;;;;;5070337;28;20045;-62
2022/05/30 03:48:34;;;;;;;8.20;4.05;;;;;;;;;;5060575;28;20077;-63
2022/05/30 03:51:03;;;;;;;10.68;4.93;;;;;;;;;;5025305;28;20045;-63
2022/05/30 03:53:29;;;;;;;8.63;4.10;;;;;;;;;;5042837;28;20109;-63
2022/05/30 03:55:55;;;;;;;11.60;4.70;;;;;;;;;;5073558;28;20048;-63
2022/05/30 03:58:21;;;;;;;10.35;4.93;;;;;;;;;;5069929;28;20047;-63
2022/05/30 04:00:47;;;;;;;9.20;4.43;;;;;;;;;;5074290;28;20056;-63
2022/05/30 04:03:13;;;;;;;10.52;4.45;;;;;;;;;;5072458;28;20036;-62
2022/05/30 04:05:40;;;;;;;8.30;3.03;;;;;;;;;;5074977;28;20133;-63
2022/05/30 04:08:06;;;;;;;6.13;2.60;;;;;;;;;;5039334;28;20606;-63
2022/05/30 04:10:32;;;;;;;5.93;2.60;;;;;;;;;;5069869;28;20098;-63
2022/05/30 04:12:59;;;;;;;6.10;2.88;;;;;;;;;;5048972;28;20137;-63
2022/05/30 04:15:25;;;;;;;7.25;2.47;;;;;;;;;;5068629;28;20033;-63
2022/05/30 04:17:51;;;;;;;10.27;4.28;;;;;;;;;;5020537;28;20053;-63
2022/05/30 04:20:17;;;;;;;4.88;2.83;;;;;;;;;;5065097;28;20041;-63
2022/05/30 04:22:47;;;;;;;12.10;5.07;;;;;;;;;;5073967;28;20052;-63
2022/05/30 04:25:13;;;;;;;8.23;3.25;;;;;;;;;;5072811;28;20395;-63
2022/05/30 04:27:39;;;;;;;5.57;3.60;;;;;;;;;;5036844;28;20045;-63
2022/05/30 04:30:06;;;;;;;12.32;6.00;;;;;;;;;;5069149;28;20044;-63
2022/05/30 04:32:34;;;;;;;8.68;3.63;;;;;;;;;;5036173;28;20044;-63
2022/05/30 04:35:00;;;;;;;8.07;2.95;;;;;;;;;;5072679;28;20123;-63
2022/05/30 04:37:28;;;;;;;9.32;3.50;;;;;;;;;;5072788;28;20045;-63
2022/05/30 04:39:54;;;;;;;7.40;3.30;;;;;;;;;;5073001;28;20055;-63
2022/05/30 04:42:20;;;;;;;7.88;3.17;;;;;;;;;;5072722;28;20466;-63
2022/05/30 04:44:46;;;;;;;7.25;3.67;;;;;;;;;;5070656;28;20051;-63
2022/05/30 04:47:12;;;;;;;10.57;3.30;;;;;;;;;;5069487;28;20040;-63
2022/05/30 04:49:39;;;;;;;8.30;3.35;;;;;;;;;;5053743;28;20048;-63
2022/05/30 04:52:05;;;;;;;7.55;3.30;;;;;;;;;;5053143;28;20493;-63
2022/05/30 04:54:32;;;;;;;10.13;3.15;;;;;;;;;;5055405;28;20048;-63
2022/05/30 04:56:59;;;;;;;5.85;2.70;;;;;;;;;;5074154;28;20588;-63
2022/05/30 04:59:25;;;;;;;7.93;3.20;;;;;;;;;;5073012;28;20720;-63
2022/05/30 05:01:51;;;;;;;9.07;3.08;;;;;;;;;;5071737;28;20226;-63
2022/05/30 05:04:17;;;;;;;8.60;3.40;;;;;;;;;;5071471;28;20034;-63
2022/05/30 05:06:43;;;;;;;6.25;2.65;;;;;;;;;;5056767;28;20040;-63
2022/05/30 05:09:24;;;;;;;10.05;3.13;;;;;;;;;;5051961;28;20159;-62
2022/05/30 05:11:50;;;;;;;6.07;2.40;;;;;;;;;;5048409;28;20040;-62
2022/05/30 05:14:16;;;;;;;6.95;2.70;;;;;;;;;;5072456;28;20137;-62
2022/05/30 05:16:42;;;;;;;4.95;2.53;;;;;;;;;;5073421;28;20048;-62
2022/05/30 05:19:09;;;;;;;7.35;2.50;;;;;;;;;;5071201;28;20538;-62
2022/05/30 05:21:36;;;;;;;6.70;2.85;;;;;;;;;;5064291;28;20045;-62
2022/05/30 05:24:03;;;;;;;8.13;2.42;;;;;;;;;;5070007;28;20059;-62
2022/05/30 05:26:30;;;;;;;9.32;2.10;;;;;;;;;;5086373;28;20055;-62
2022/05/30 05:28:57;;;;;;;7.43;2.40;;;;;;;;;;5091157;28;20541;-62
2022/05/30 05:31:24;;;;;;;3.75;1.85;;;;;;;;;;5088741;28;20048;-62
2022/05/30 05:33:51;;;;;;;5.78;1.77;;;;;;;;;;5078941;28;20121;-62
2022/05/30 05:36:20;;;;;;;5.63;1.73;;;;;;;;;;5081081;28;20042;-62
2022/05/30 05:38:46;;;;;;;5.18;1.80;;;;;;;;;;5084851;28;20040;-62
2022/05/30 05:41:12;;;;;;;2.67;1.40;;;;;;;;;;5083186;28;20559;-62
2022/05/30 05:43:39;;;;;;;5.03;1.90;;;;;;;;;;5073013;28;20127;-61
2022/05/30 05:46:05;;;;;;;10.65;2.70;;;;;;;;;;5087330;28;20054;-61
2022/05/30 05:48:31;;;;;;;5.55;1.83;;;;;;;;;;5090935;28;20056;-61
2022/05/30 05:50:57;;;;;;;6.60;2.03;;;;;;;;;;5091283;28;20488;-62
2022/05/30 05:53:23;;;;;;;5.55;1.80;;;;;;;;;;5082962;28;20037;-62
2022/05/30 05:55:49;;;;;;;6.65;1.88;;;;;;;;;;5079756;28;20051;-61
2022/05/30 05:58:15;;;;;;;2.97;1.30;;;;;;;;;;5074137;28;20408;-61
2022/05/30 06:00:41;;;;;;;3.28;1.42;;;;;;;;;;5085958;28;20511;-61
2022/05/30 06:03:07;;;;;;;3.13;1.60;;;;;;;;;;5085522;28;20040;-61
2022/05/30 06:05:33;;;;;;;3.88;1.30;;;;;;;;;;5092228;28;20059;-61
2022/05/30 06:08:00;;;;;;;9.80;2.03;;;;;;;;;;5092542;28;20369;-61
2022/05/30 06:10:26;;;;;;;9.52;1.60;;;;;;;;;;5080887;28;20415;-61
2022/05/30 06:12:52;;;;;;;4.38;1.20;;;;;;;;;;5091395;28;20051;-61
2022/05/30 06:15:19;;;;;;;7.10;1.50;;;;;;;;;;5092567;28;20051;-62
2022/05/30 06:17:46;;;;;;;6.47;2.15;;;;;;;;;;5092846;28;20105;-61
2022/05/30 06:20:16;;;;;;;3.38;1.02;;;;;;;;;;5088972;28;20483;-61
2022/05/30 06:22:42;;;;;;;4.47;1.00;;;;;;;;;;5076380;28;20044;-61
2022/05/30 06:25:08;;;;;;;4.50;1.00;;;;;;;;;;5072490;28;20059;-61
2022/05/30 06:27:35;;;;;;;4.35;1.00;;;;;;;;;;5071825;28;20040;-61
2022/05/30 06:30:02;;;;;;;5.25;1.10;;;;;;;;;;5071380;28;20087;-61
2022/05/30 06:32:28;;;;;;;5.78;1.00;;;;;;;;;;5054109;28;20389;-61
2022/05/30 06:34:55;;;;;;;5.22;1.00;;;;;;;;;;5072040;28;20382;-61
2022/05/30 06:37:21;;;;;;;6.15;1.25;;;;;;;;;;5071403;28;20056;-61
2022/05/30 06:39:47;;;;;;;2.83;1.00;;;;;;;;;;5049152;28;20123;-61
2022/05/30 06:42:14;;;;;;;4.50;1.00;;;;;;;;;;5058841;28;20048;-62
2022/05/30 06:44:40;;;;;;;1.65;0.70;;;;;;;;;;5069146;28;20511;-62
2022/05/30 06:47:07;;;;;;;5.82;0.90;;;;;;;;;;5041996;28;20090;-62
2022/05/30 06:49:34;;;;;;;2.10;0.60;;;;;;;;;;5063736;28;20048;-62
2022/05/30 06:52:00;;;;;;;1.45;0.60;;;;;;;;;;5070244;28;20041;-62
2022/05/30 06:54:26;;;;;;;1.92;0.73;;;;;;;;;;5071947;28;20053;-62
2022/05/30 06:59:37;;;;;;;2.95;0.70;;;;;;;;;;5070876;28;20500;-62
2022/05/30 07:02:04;;;;;;;2.47;0.60;;;;;;;;;;5072207;28;20052;-62
2022/05/30 07:04:31;;;;;;;4.47;0.70;;;;;;;;;;5072165;28;20135;-61
2022/05/30 07:06:57;;;;;;;4.95;0.80;;;;;;;;;;5047286;28;20392;-62
2022/05/30 07:09:23;;;;;;;3.38;0.75;;;;;;;;;;5063459;28;20061;-61
2022/05/30 07:11:49;;;;;;;8.27;1.45;;;;;;;;;;5058558;28;20051;-61
2022/05/30 07:14:16;;;;;;;4.20;0.95;;;;;;;;;;5068256;28;20119;-62
2022/05/30 07:16:43;;;;;;;2.60;0.60;;;;;;;;;;5062641;28;20036;-61
2022/05/30 07:19:09;;;;;;;4.65;0.80;;;;;;;;;;5070205;28;20052;-62
2022/05/30 07:21:36;;;;;;;3.72;0.70;;;;;;;;;;5069645;28;20037;-62
2022/05/30 07:24:02;;;;;;;1.95;0.80;;;;;;;;;;5050303;28;20059;-61
2022/05/30 07:26:29;;;;;;;5.28;1.65;;;;;;;;;;5073400;28;20080;-61
2022/05/30 07:28:55;;;;;;;5.15;1.02;;;;;;;;;;5070286;28;20459;-62
2022/05/30 07:31:25;;;;;;;4.00;0.70;;;;;;;;;;5071444;28;20036;-61
2022/05/30 07:33:51;;;;;;;3.00;0.77;;;;;;;;;;5072936;28;20125;-61
2022/05/30 07:36:21;;;;;;;8.32;1.88;;;;;;;;;;5054385;28;20047;-61
2022/05/30 07:38:47;;;;;;;4.72;0.85;;;;;;;;;;5051691;28;20052;-61
2022/05/30 07:41:13;;;;;;;4.63;0.90;;;;;;;;;;5071615;28;20048;-61
2022/05/30 07:43:39;;;;;;;3.67;1.33;;;;;;;;;;5037129;28;20120;-61
2022/05/30 07:46:07;;;;;;;4.32;0.80;;;;;;;;;;5069317;28;20043;-61
2022/05/30 07:48:33;;;;;;;1.65;0.70;;;;;;;;;;5068961;28;20063;-61
2022/05/30 07:50:59;;;;;;;2.55;0.65;;;;;;;;;;5069000;28;20045;-61
2022/05/30 07:53:26;;;;;;;4.43;0.70;;;;;;;;;;5073986;28;20042;-61
2022/05/30 07:55:52;;;;;;;2.80;0.60;;;;;;;;;;5073949;28;20072;-61
2022/05/30 07:58:18;;;;;;;1.95;0.50;;;;;;;;;;5060559;28;20037;-61
2022/05/30 08:00:44;;;;;;;2.15;0.50;;;;;;;;;;5063919;28;20056;-61
2022/05/30 08:03:13;;;;;;;2.72;0.50;;;;;;;;;;5066737;28;20509;-62
2022/05/30 08:05:39;;;;;;;2.63;0.65;;;;;;;;;;5073642;28;20058;-62
2022/05/30 08:08:06;;;;;;;3.75;0.70;;;;;;;;;;5069091;28;20036;-62
2022/05/30 08:10:32;;;;;;;4.72;1.23;;;;;;;;;;5054377;28;20060;-62
2022/05/30 08:12:58;;;;;;;1.65;0.60;;;;;;;;;;5073232;28;20044;-62
2022/05/30 08:15:24;;;;;;;1.80;0.40;;;;;;;;;;5071927;28;20056;-62
2022/05/30 08:17:54;;;;;;;3.80;1.42;;;;;;;;;;5056981;28;20037;-62
2022/05/30 08:20:20;;;;;;;3.40;0.63;;;;;;;;;;5049766;28;20090;-63
2022/05/30 08:22:46;;;;;;;3.05;0.50;;;;;;;;;;5068700;28;20107;-63
2022/05/30 08:25:16;;;;;;;1.67;0.50;;;;;;;;;;5087683;28;20092;-62
2022/05/30 08:27:43;;;;;;;2.15;0.40;;;;;;;;;;5086398;28;20074;-62
2022/05/30 08:30:10;;;;;;;2.40;0.47;;;;;;;;;;5085130;28;20055;-62
2022/05/30 08:32:37;;;;;;;1.77;0.75;;;;;;;;;;5086841;28;20438;-62
2022/05/30 08:35:04;;;;;;;2.03;0.57;;;;;;;;;;5086940;28;20055;-62
2022/05/30 08:37:31;;;;;;;7.15;0.80;;;;;;;;;;5069967;28;20488;-62
2022/05/30 08:42:46;;;;;;;2.03;0.63;;;;;;;;;;5088863;28;20066;-62
2022/05/30 08:45:16;;;;;;;1.25;0.60;;;;;;;;;;5080218;28;20036;-62
2022/05/30 08:47:46;;;;;;;2.63;0.53;;;;;;;;;;5066299;28;20032;-62
2022/05/30 08:50:34;;;;;;;4.10;0.70;;;;;;;;;;5083531;28;20122;-62
2022/05/30 08:53:13;;;;;;;2.70;0.70;;;;;;;;;;5084475;28;20055;-62
2022/05/30 08:55:47;;;;;;;4.50;0.93;;;;;;;;;;5083342;28;20080;-62
2022/05/30 08:58:14;;;;;;;2.63;0.60;;;;;;;;;;5084652;28;20066;-61
2022/05/30 09:00:44;;;;;;;5.07;0.73;;;;;;;;;;5087373;28;20596;-61
2022/05/30 09:03:14;;;;;;;;;;;13.80;99.90;;;;;;5092002;28;20489;-62
2022/05/30 09:05:48;;;;;;;4.55;0.80;;;;;;;;;;5092224;28;19920;-62
2022/05/30 09:08:20;;;;;;;5.65;0.65;;;;;;;;;;5069838;28;20165;-63
2022/05/30 09:10:52;;;;;;;0.90;0.70;;;;;;;;;;5089016;28;20127;-62
2022/05/30 09:13:20;;;;;;;3.45;0.80;;;;;;;;;;5073889;28;20056;-62
2022/05/30 09:15:53;;;;;;;2.83;0.73;;;;;;;;;;5071752;28;20050;-62
2022/05/30 09:18:23;;;;;;;1.15;0.60;;;;;;;;;;5077880;28;20040;-62
2022/05/30 09:20:49;;;;;;;;;;;14.50;99.90;;;;;;5081570;28;20048;-62
2022/05/30 09:23:18;;;;;;;1.70;0.63;;;;;;;;;;5088471;28;20509;-61
2022/05/30 09:26:00;;;;;;;2.78;0.50;;;;;;;;;;5075414;28;20062;-62
2022/05/30 09:28:27;;;;;;;3.60;0.52;;;;;;;;;;5086438;28;20170;-62
2022/05/30 09:30:59;;;;;;;0.68;0.38;;;;;;;;;;5065786;28;20040;-62
2022/05/30 09:33:29;;;;;;;3.50;0.70;;;;;;;;;;5084101;28;20137;-62
2022/05/30 09:36:11;;;;;;;3.10;0.80;;;;;;;;;;5084482;28;20111;-62
2022/05/30 09:38:41;;;;;;;4.65;0.55;;;;;;;;;;5081741;28;20105;-62
2022/05/30 09:41:11;;;;;;;2.20;0.52;;;;;;;;;;5083220;28;20083;-62
2022/05/30 09:43:42;;;;;;;0.95;0.40;;;;;;;;;;5062529;28;20438;-62
2022/05/30 09:46:30;;;;;;;1.20;0.30;;;;;;;;;;5090630;28;20040;-62
2022/05/30 09:49:09;;;;;;;2.45;0.45;;;;;;;;;;5067597;28;20040;-63
2022/05/30 09:51:40;;;;;;;1.88;0.60;;;;;;;;;;5087292;28;20048;-62
2022/05/30 09:54:08;;;;;;;2.13;0.55;;;;;;;;;;5084205;28;20044;-62
2022/05/30 09:56:37;;;;;;;0.82;0.40;;;;;;;;;;5066666;28;21891;-62
2022/05/30 09:59:03;;;;;;;2.97;0.45;;;;;;;;;;5086001;28;20075;-62
2022/05/30 10:01:32;;;;;;;1.85;0.30;;;16.30;99.90;;;;;;5080818;28;20079;-62
2022/05/30 10:04:15;;;;;;;2.30;0.45;;;16.60;99.90;;;;;;5086439;28;20047;-62
2022/05/30 10:06:40;;;;;;;3.88;0.73;;;16.90;99.90;;;;;;5088321;28;20036;-62
2022/05/30 10:09:22;;;;;;;1.13;0.30;;;16.90;99.90;;;;;;5082677;28;20156;-62
2022/05/30 10:11:53;;;;;;;2.53;0.50;;;;;;;;;;5088974;28;20130;-62
2022/05/30 10:14:24;;;;;;;2.10;0.60;;;;;;;;;;5086973;28;20438;-62
2022/05/30 10:16:52;;;;;;;2.78;0.50;;;;;;;;;;5084010;28;20096;-62
2022/05/30 10:19:38;;;;;;;1.23;0.40;;;;;;;;;;5066043;28;20043;-62
2022/05/30 10:28:16;;;;;;;2.08;0.50;;;;;;;;;;5072920;28;20132;-63
2022/05/30 10:30:52;;;;;;;1.65;0.45;;;;;;;;;;5080979;28;20064;-60
2022/05/30 10:33:30;;;;;;;1.20;0.40;;;;;;;;;;5088430;28;20124;-61
2022/05/30 10:36:19;;;;;;;1.50;0.57;;;;;;;;;;5073489;28;20052;-64
2022/05/30 10:39:01;;;;;;;3.15;1.13;;;;;;;;;;5089963;28;20036;-61
2022/05/30 10:41:44;;;;;;;3.28;0.98;;;;;;;;;;5090176;28;20044;-60
2022/05/30 10:44:29;;;;;;;1.75;0.55;;;;;;;;;;5084787;28;20063;-61
2022/05/30 10:47:03;;;;;;;4.32;0.73;;;;;;;;;;5079910;28;20050;-60
2022/05/30 10:49:33;;;;;;;2.05;0.60;;;;;;;;;;5065861;28;20071;-62
2022/05/30 10:52:01;;;;;;;3.88;0.68;;;;;;;;;;5088760;28;20043;-62
2022/05/30 10:54:50;;;;;;;1.75;0.45;;;;;;;;;;5087351;28;20125;-62
2022/05/30 10:57:42;;;;;;;3.22;0.80;;;14.20;99.90;;;;;;5064766;28;20059;-62
2022/05/30 11:00:15;;;;;;;4.88;0.70;;;;;;;;;;5091229;28;20051;-59
2022/05/30 11:02:50;;;;;;;2.78;0.80;;;;;;;;;;5058668;28;20063;-60
2022/05/30 11:05:21;;;;;;;3.55;0.52;;;;;;;;;;5093173;28;20119;-59
2022/05/30 11:07:51;;;;;;;2.30;0.50;;;;;;;;;;5068296;28;20040;-59
2022/05/30 11:10:23;;;;;;;0.87;0.50;;;;;;;;;;5075917;28;20043;-59
2022/05/30 11:13:05;;;;;;;0.98;0.30;;;;;;;;;;5087805;28;20083;-60
2022/05/30 11:15:34;;;;;;;1.85;0.40;;;;;;;;;;5078090;28;20048;-60
2022/05/30 11:18:09;;;;;;;1.75;0.38;;;;;;;;;;5071485;28;20044;-60
2022/05/30 11:20:42;;;;;;;1.88;0.32;;;;;;;;;;5088427;28;20048;-60
2022/05/30 11:23:08;;;;;;;0.52;0.20;;;;;;;;;;5070890;28;20710;-60
2022/05/30 11:25:47;;;;;;;1.90;0.52;;;;;;;;;;5067938;28;20124;-60
2022/05/30 11:28:31;;;;;;;0.30;0.20;;;;;;;;;;5087791;28;20044;-60
2022/05/30 11:31:04;;;;;;;1.77;0.40;;;;;;;;;;5070338;28;20040;-60
2022/05/30 11:33:30;;;;;;;2.33;0.40;;;;;;;;;;5088221;28;20365;-60
2022/05/30 11:36:04;;;;;;;3.20;0.40;;;;;;;;;;5088048;28;20040;-60
2022/05/30 11:38:49;;;;;;;5.15;0.50;;;;;;;;;;5073531;28;20565;-60
2022/05/30 11:41:34;;;;;;;2.05;0.40;;;;;;;;;;5062984;28;20040;-60
2022/05/30 11:44:13;;;;;;;2.75;0.55;;;;;;;;;;5090328;28;20098;-61
2022/05/30 11:46:58;;;;;;;3.10;0.55;;;;;;;;;;5089616;28;20044;-61
2022/05/30 11:49:24;;;;;;;1.80;0.45;;;;;;;;;;5087232;28;20058;-61
2022/05/30 11:51:59;;;;;;;1.98;0.70;;;;;;;;;;5087780;28;20052;-61
2022/05/30 11:54:25;;;;;;;3.72;0.57;;;;;;;;;;5052876;28;20060;-61
2022/05/30 11:57:03;;;;;;;1.20;0.50;;;;;;;;;;5087040;28;20067;-62
2022/05/30 11:59:41;;;;;;;2.97;0.52;;;;;;;;;;5087379;28;20048;-61
2022/05/30 12:02:11;;;;;;;1.38;0.57;;;;;;;;;;5087602;28;20426;-61
2022/05/30 12:05:09;;;;;;;;;;;12.70;99.90;;;;;;5088207;28;20040;-61
2022/05/30 12:07:55;;;;;;;1.05;0.45;;;;;;;;;;5021625;28;20060;-61
2022/05/30 12:10:36;;;;;;;6.78;1.00;;;;;;;;;;5027319;28;20085;-61
2022/05/30 12:13:11;;;;;;;2.13;0.50;;;;;;;;;;5024398;28;20041;-61
2022/05/30 12:15:43;;;;;;;1.65;0.60;;;;;;;;;;5028466;28;20045;-61
2022/05/30 12:24:18;;;;;;;3.45;0.85;;;;;;;;;;5028572;28;20045;-61
2022/05/30 12:26:49;;;;;;;3.17;0.85;;;;;;;;;;5026203;28;20041;-62
2022/05/30 12:29:33;;;;;;;2.58;0.70;;;;;;;;;;5031404;28;20088;-62
2022/05/30 12:32:19;;;;;;;3.05;0.70;;;;;;;;;;5031631;28;20042;-61
2022/05/30 12:35:00;;;;;;;2.72;0.98;;;;;;;;;;5031339;28;20046;-61
2022/05/30 12:37:47;;;;;;;2.78;0.98;;;;;;;;;;5028834;28;20046;-61
2022/05/30 12:40:22;;;;;;;4.68;1.20;;;;;;;;;;5032200;28;20124;-62
2022/05/30 12:42:57;;;;;;;4.57;0.80;;;;;;;;;;5052293;28;20075;-61
2022/05/30 12:45:41;;;;;;;4.93;1.00;;;;;;;;;;5094807;28;20055;-63
2022/05/30 12:48:16;;;;;;;4.75;0.95;;;;;;;;;;5093129;28;20040;-61
2022/05/30 12:50:52;;;;;;;2.70;0.82;;;;;;;;;;5093180;28;20044;-60
2022/05/30 12:53:19;;;;;;;2.35;1.08;;;;;;;;;;5094224;28;20040;-60
2022/05/30 12:55:50;;;;;;;6.00;1.00;;;;;;;;;;5075662;28;20056;-60
2022/05/30 12:58:38;;;;;;;2.38;0.90;;;14.70;99.90;;;;;;5093274;28;20496;-60
2022/05/30 13:01:19;;;;;;;2.90;0.90;;;;;;;;;;4992297;28;20141;-60
2022/05/30 13:03:46;;;;;;;3.10;1.10;;;;;;;;;;4991756;28;20050;-60
2022/05/30 13:06:15;;;;;;;3.22;0.90;;;;;;;;;;4992165;28;20427;-60
2022/05/30 13:08:52;;;;;;;5.93;1.00;;;;;;;;;;4991606;28;20451;-61
2022/05/30 13:11:33;;;;;;;7.30;2.35;;;;;;;;;;4992029;28;20431;-61
2022/05/30 13:14:31;;;;;;;5.55;1.13;;;;;;;;;;4990381;28;20061;-60
2022/05/30 13:17:16;;;;;;;3.22;1.00;;;;;;;;;;4969948;28;20086;-61
2022/05/30 13:19:44;;;;;;;1.38;0.70;;;;;;;;;;4991511;28;20470;-61
2022/05/30 13:22:11;;;;;;;4.03;1.00;;;;;;;;;;4991976;28;20046;-60
2022/05/30 13:24:38;;;;;;;4.32;0.95;;;;;;;;;;4982637;28;20114;-61
2022/05/30 13:27:04;;;;;;;4.13;1.00;;;;;;;;;;4970543;28;20050;-61
2022/05/30 13:29:35;;;;;;;2.72;0.85;;;;;;;;;;4972388;28;20093;-61
2022/05/30 13:32:01;;;;;;;6.30;0.90;;;;;;;;;;4967923;28;20135;-61
2022/05/30 13:34:29;;;;;;;2.13;0.75;;;;;;;;;;4971181;28;20046;-61
2022/05/30 13:36:55;;;;;;;3.03;0.93;;;;;;;;;;4970547;28;20047;-60
2022/05/30 13:39:21;;;;;;;3.30;0.82;;;;;;;;;;5057420;28;20076;-60
2022/05/30 13:41:49;;;;;;;4.00;0.70;;;;;;;;;;5072913;28;20480;-60
2022/05/30 13:44:17;;;;;;;4.15;0.70;;;;;;;;;;5072689;28;20052;-60
2022/05/30 13:46:45;;;;;;;1.10;0.40;;;;;;;;;;5055314;28;20492;-60
2022/05/30 13:49:11;;;;;;;1.60;0.57;;;;;;;;;;5072272;28;20045;-60
2022/05/30 13:51:38;;;;;;;4.78;0.80;;;;;;;;;;5053290;28;20041;-60
2022/05/30 13:54:06;;;;;;;2.22;0.40;;;;;;;;;;5073018;28;20052;-60
2022/05/30 13:56:37;;;;;;;1.98;0.77;;;;;;;;;;5071748;28;20071;-60
2022/05/30 13:59:05;;;;;;;3.70;0.70;;;;;;;;;;5054406;28;20040;-60
2022/05/30 14:01:33;;;;;;;3.65;0.65;;;;;;;;;;5072746;28;20044;-60
2022/05/30 14:04:02;;;;;;;4.55;0.90;;;;;;;;;;5072024;28;20048;-60
2022/05/30 14:06:28;;;;;;;2.40;0.80;;;;;;;;;;5072759;28;20054;-60
2022/05/30 14:08:54;;;;;;;2.70;0.70;;;;;;;;;;5072114;28;20512;-60
2022/05/30 14:11:21;;;;;;;4.20;1.10;;;;;;;;;;5070712;28;20055;-60
2022/05/30 14:13:47;;;;;;;3.20;0.77;;;;;;;;;;5072580;28;20047;-60
2022/05/30 14:16:29;;;;;;;2.45;0.70;;;;;;;;;;5053365;28;20045;-60
2022/05/30 14:18:57;;;;;;;4.95;0.90;;;;;;;;;;5072767;28;20040;-60
2022/05/30 14:21:24;;;;;;;3.92;1.02;;;;;;;;;;5072036;28;20049;-60
2022/05/30 14:23:52;;;;;;;4.72;1.38;;;;;;;;;;5056964;28;20041;-60
2022/05/30 14:26:36;;;;;;;5.28;1.00;;;;;;;;;;5092146;28;20504;-60
2022/05/30 14:29:10;;;;;;;2.90;1.00;;;;;;;;;;5092057;28;20108;-61
2022/05/30 14:31:36;;;;;;;2.80;0.70;;;;;;;;;;5090494;28;20050;-60
2022/05/30 14:34:11;;;;;;;3.95;0.90;;;;;;;;;;5090959;28;20046;-60
2022/05/30 14:36:39;;;;;;;4.90;0.90;;;16.70;99.90;;;;;;5091627;28;20044;-61
2022/05/30 14:39:13;;;;;;;3.42;0.98;;;;;;;;;;5089765;28;20044;-60
2022/05/30 14:41:39;;;;;;;3.10;0.85;;;;;;;;;;5092401;28;20036;-61
2022/05/30 14:44:05;;;;;;;4.90;1.30;;;;;;;;;;5092051;28;20044;-61
2022/05/30 14:46:39;;;;;;;6.30;2.05;;;;;;;;;;5092269;28;20415;-60
2022/05/30 14:49:16;;;;;;;8.48;1.55;;;;;;;;;;5091883;28;20051;-60
2022/05/30 14:51:51;;;;;;;5.13;1.00;;;;;;;;;;5092241;28;20125;-61
2022/05/30 14:54:24;;;;;;;3.40;0.80;;;;;;;;;;5091420;28;20048;-60
2022/05/30 14:56:50;;;;;;;4.60;1.30;;;;;;;;;;5092506;28;20088;-60
2022/05/30 14:59:46;;;;;;;3.30;0.90;;;;;;;;;;5091800;28;20040;-60
2022/05/30 15:04:02;;;;;;;4.22;0.98;;;;;;;;;;5077984;28;20052;-60
2022/05/30 15:05:18;;;;;;;4.10;1.00;;;;;;;;;;5091828;28;20048;-60
2022/05/30 15:07:45;;;;;;;3.20;1.10;;;;;;;;;;5089892;28;20036;-60
2022/05/30 15:10:12;;;;;;;4.60;1.10;;;;;;;;;;5090271;28;20040;-60
2022/05/30 15:12:38;;;;;;;5.55;1.00;;;;;;;;;;5089912;28;20153;-60
2022/05/30 15:15:05;;;;;;;4.53;1.05;;;;;;;;;;5092631;28;20048;-60
2022/05/30 15:17:31;;;;;;;4.25;1.40;;;;;;;;;;5091589;28;20123;-60
2022/05/30 15:19:59;;;;;;;4.32;1.13;;;;;;;;;;5091991;28;20480;-60
2022/05/30 15:22:25;;;;;;;4.55;1.25;;;;;;;;;;5072302;28;20078;-60